sensor_id;sensor_type;location;lat;lon;timestamp;pressure;altitude;pressure_sealevel;temperature;humidity
40612;BME280;26317;44.894;20.286;2023-02-20T00:02:16;101438.56;;;10.08;69.79
40612;BME280;26317;44.894;20.286;2023-02-20T00:07:52;101431.44;;;9.97;68.08
40612;BME280;26317;44.894;20.286;2023-02-20T00:10:28;101475.50;;;9.90;68.06
40612;BME280;26317;44.894;20.286;2023-02-20T00:13:16;101458.03;;;9.87;68.26
40612;BME280;26317;44.894;20.286;2023-02-20T00:15:51;101479.56;;;9.92;65.88
40612;BME280;26317;44.894;20.286;2023-02-20T00:18:26;101461.78;;;9.86;66.44
40612;BME280;26317;44.894;20.286;2023-02-20T00:21:12;101460.53;;;9.77;66.95
40612;BME280;26317;44.894;20.286;2023-02-20T00:23:48;101481.66;;;9.74;67.81
40612;BME280;26317;44.894;20.286;2023-02-20T00:26:27;101474.00;;;9.65;66.56
40612;BME280;26317;44.894;20.286;2023-02-20T00:29:17;101464.84;;;9.61;66.03
40612;BME280;26317;44.894;20.286;2023-02-20T00:32:03;101482.78;;;9.61;65.74
40612;BME280;26317;44.894;20.286;2023-02-20T00:34:37;101453.22;;;9.39;66.20
40612;BME280;26317;44.894;20.286;2023-02-20T00:37:14;101486.66;;;9.53;65.41
40612;BME280;26317;44.894;20.286;2023-02-20T00:39:49;101477.06;;;9.41;65.42
40612;BME280;26317;44.894;20.286;2023-02-20T00:42:26;101500.75;;;9.49;65.68
40612;BME280;26317;44.894;20.286;2023-02-20T00:45:09;101511.97;;;9.46;66.23
40612;BME280;26317;44.894;20.286;2023-02-20T00:47:47;101526.28;;;9.51;65.29
40612;BME280;26317;44.894;20.286;2023-02-20T00:50:18;101517.31;;;9.46;65.92
40612;BME280;26317;44.894;20.286;2023-02-20T00:53:02;101501.34;;;9.22;66.12
40612;BME280;26317;44.894;20.286;2023-02-20T00:55:36;101526.66;;;9.32;66.06
40612;BME280;26317;44.894;20.286;2023-02-20T00:58:21;101535.03;;;9.35;66.06
40612;BME280;26317;44.894;20.286;2023-02-20T01:01:16;101534.63;;;9.27;66.74
40612;BME280;26317;44.894;20.286;2023-02-20T01:03:59;101527.03;;;9.23;66.68
40612;BME280;26317;44.894;20.286;2023-02-20T01:06:36;101533.00;;;9.26;66.94
40612;BME280;26317;44.894;20.286;2023-02-20T01:09:14;101537.19;;;9.21;67.14
40612;BME280;26317;44.894;20.286;2023-02-20T01:11:53;101537.91;;;9.17;67.30
40612;BME280;26317;44.894;20.286;2023-02-20T01:14:31;101540.25;;;9.13;67.33
40612;BME280;26317;44.894;20.286;2023-02-20T01:17:16;101556.75;;;9.10;67.16
40612;BME280;26317;44.894;20.286;2023-02-20T01:20:03;101545.72;;;8.95;67.70
40612;BME280;26317;44.894;20.286;2023-02-20T01:22:38;101545.25;;;8.98;67.54
40612;BME280;26317;44.894;20.286;2023-02-20T01:25:12;101524.00;;;8.80;67.95
40612;BME280;26317;44.894;20.286;2023-02-20T01:28:02;101564.31;;;9.02;67.62
40612;BME280;26317;44.894;20.286;2023-02-20T01:30:45;101557.13;;;8.91;67.90
40612;BME280;26317;44.894;20.286;2023-02-20T01:33:26;101547.50;;;8.78;68.64
40612;BME280;26317;44.894;20.286;2023-02-20T01:36:08;101576.91;;;9.01;68.00
40612;BME280;26317;44.894;20.286;2023-02-20T01:38:47;101584.81;;;9.08;67.72
40612;BME280;26317;44.894;20.286;2023-02-20T01:41:34;101582.97;;;8.97;67.35
40612;BME280;26317;44.894;20.286;2023-02-20T01:44:17;101578.88;;;8.94;67.47
40612;BME280;26317;44.894;20.286;2023-02-20T01:47:07;101577.94;;;8.77;67.79
40612;BME280;26317;44.894;20.286;2023-02-20T01:49:59;101591.09;;;8.78;68.19
40612;BME280;26317;44.894;20.286;2023-02-20T01:52:40;101578.44;;;8.51;68.64
40612;BME280;26317;44.894;20.286;2023-02-20T01:55:20;101598.66;;;8.70;67.62
40612;BME280;26317;44.894;20.286;2023-02-20T01:58:05;101605.75;;;8.88;67.59
40612;BME280;26317;44.894;20.286;2023-02-20T02:00:45;101600.88;;;8.85;67.08
40612;BME280;26317;44.894;20.286;2023-02-20T02:03:29;101609.94;;;8.84;66.67
40612;BME280;26317;44.894;20.286;2023-02-20T02:06:26;101605.78;;;8.76;66.69
40612;BME280;26317;44.894;20.286;2023-02-20T02:09:17;101622.72;;;8.82;66.98
40612;BME280;26317;44.894;20.286;2023-02-20T02:14:47;101626.09;;;8.77;66.07
40612;BME280;26317;44.894;20.286;2023-02-20T02:17:42;101621.81;;;8.76;65.35
40612;BME280;26317;44.894;20.286;2023-02-20T02:24:05;101624.25;;;8.66;66.33
40612;BME280;26317;44.894;20.286;2023-02-20T02:30:36;101616.69;;;8.51;67.00
40612;BME280;26317;44.894;20.286;2023-02-20T02:33:49;101611.63;;;8.31;67.30
40612;BME280;26317;44.894;20.286;2023-02-20T02:36:50;101619.06;;;8.29;66.93
40612;BME280;26317;44.894;20.286;2023-02-20T02:39:34;101625.75;;;8.20;66.13
40612;BME280;26317;44.894;20.286;2023-02-20T02:42:24;101627.94;;;8.12;65.37
40612;BME280;26317;44.894;20.286;2023-02-20T02:45:09;101628.47;;;8.02;65.03
40612;BME280;26317;44.894;20.286;2023-02-20T02:48:03;101631.72;;;8.04;64.76
40612;BME280;26317;44.894;20.286;2023-02-20T02:50:44;101625.28;;;7.94;64.56
40612;BME280;26317;44.894;20.286;2023-02-20T02:53:39;101633.09;;;7.95;64.31
40612;BME280;26317;44.894;20.286;2023-02-20T02:56:16;101643.31;;;7.98;63.86
40612;BME280;26317;44.894;20.286;2023-02-20T02:58:59;101647.41;;;8.01;64.42
40612;BME280;26317;44.894;20.286;2023-02-20T03:01:40;101648.16;;;7.90;64.38
40612;BME280;26317;44.894;20.286;2023-02-20T03:04:26;101622.13;;;7.85;64.81
40612;BME280;26317;44.894;20.286;2023-02-20T03:07:10;101656.41;;;7.88;64.68
40612;BME280;26317;44.894;20.286;2023-02-20T03:10:02;101640.56;;;7.75;64.60
40612;BME280;26317;44.894;20.286;2023-02-20T03:12:46;101661.59;;;7.83;63.83
40612;BME280;26317;44.894;20.286;2023-02-20T03:15:44;101645.13;;;7.86;63.45
40612;BME280;26317;44.894;20.286;2023-02-20T03:18:21;101668.66;;;7.77;62.10
40612;BME280;26317;44.894;20.286;2023-02-20T03:21:06;101662.44;;;7.83;60.92
40612;BME280;26317;44.894;20.286;2023-02-20T03:23:44;101673.47;;;7.87;61.17
40612;BME280;26317;44.894;20.286;2023-02-20T03:26:33;101686.22;;;7.85;60.15
40612;BME280;26317;44.894;20.286;2023-02-20T03:29:18;101683.84;;;7.77;59.67
40612;BME280;26317;44.894;20.286;2023-02-20T03:32:00;101638.91;;;7.56;59.93
40612;BME280;26317;44.894;20.286;2023-02-20T03:34:58;101669.31;;;7.73;59.65
40612;BME280;26317;44.894;20.286;2023-02-20T03:37:48;101667.41;;;7.80;59.87
40612;BME280;26317;44.894;20.286;2023-02-20T03:40:39;101651.81;;;7.77;60.23
40612;BME280;26317;44.894;20.286;2023-02-20T03:43:47;101689.13;;;7.65;60.94
40612;BME280;26317;44.894;20.286;2023-02-20T03:46:32;101693.22;;;7.68;61.73
40612;BME280;26317;44.894;20.286;2023-02-20T03:49:28;101692.94;;;7.76;61.65
40612;BME280;26317;44.894;20.286;2023-02-20T03:52:17;101698.47;;;7.74;62.07
40612;BME280;26317;44.894;20.286;2023-02-20T03:55:00;101695.16;;;7.79;61.97
40612;BME280;26317;44.894;20.286;2023-02-20T03:57:44;101695.44;;;7.71;62.29
40612;BME280;26317;44.894;20.286;2023-02-20T04:00:45;101705.09;;;7.72;62.08
40612;BME280;26317;44.894;20.286;2023-02-20T04:03:35;101689.38;;;7.64;62.57
40612;BME280;26317;44.894;20.286;2023-02-20T04:08:59;101702.84;;;7.69;62.71
40612;BME280;26317;44.894;20.286;2023-02-20T04:11:44;101720.50;;;7.70;62.48
40612;BME280;26317;44.894;20.286;2023-02-20T04:14:20;101729.13;;;7.72;62.57
40612;BME280;26317;44.894;20.286;2023-02-20T04:17:12;101741.88;;;7.70;62.36
40612;BME280;26317;44.894;20.286;2023-02-20T04:19:45;101745.44;;;7.82;61.71
40612;BME280;26317;44.894;20.286;2023-02-20T04:22:28;101740.47;;;7.85;61.59
40612;BME280;26317;44.894;20.286;2023-02-20T04:25:13;101750.16;;;7.98;61.42
40612;BME280;26317;44.894;20.286;2023-02-20T04:27:58;101751.66;;;8.12;60.81
40612;BME280;26317;44.894;20.286;2023-02-20T04:30:45;101752.94;;;8.10;60.36
40612;BME280;26317;44.894;20.286;2023-02-20T04:33:21;101752.94;;;8.10;60.64
40612;BME280;26317;44.894;20.286;2023-02-20T04:36:07;101754.53;;;8.11;61.56
40612;BME280;26317;44.894;20.286;2023-02-20T04:38:48;101740.16;;;8.12;60.93
40612;BME280;26317;44.894;20.286;2023-02-20T04:41:28;101758.47;;;8.26;61.13
40612;BME280;26317;44.894;20.286;2023-02-20T04:44:01;101752.16;;;8.39;61.14
40612;BME280;26317;44.894;20.286;2023-02-20T04:46:54;101730.75;;;8.39;62.72
40612;BME280;26317;44.894;20.286;2023-02-20T04:49:42;101747.91;;;8.50;63.21
40612;BME280;26317;44.894;20.286;2023-02-20T04:52:24;101728.09;;;8.39;63.60
40612;BME280;26317;44.894;20.286;2023-02-20T04:54:59;101766.19;;;8.64;63.93
40612;BME280;26317;44.894;20.286;2023-02-20T04:57:33;101770.75;;;8.64;63.75
40612;BME280;26317;44.894;20.286;2023-02-20T05:00:16;101769.13;;;8.63;63.44
40612;BME280;26317;44.894;20.286;2023-02-20T05:02:54;101772.81;;;8.62;63.39
40612;BME280;26317;44.894;20.286;2023-02-20T05:05:33;101774.19;;;8.53;63.09
40612;BME280;26317;44.894;20.286;2023-02-20T05:08:30;101792.00;;;8.59;62.18
40612;BME280;26317;44.894;20.286;2023-02-20T05:11:08;101799.44;;;8.57;62.18
40612;BME280;26317;44.894;20.286;2023-02-20T05:13:46;101790.59;;;8.56;61.85
40612;BME280;26317;44.894;20.286;2023-02-20T05:16:18;101759.00;;;8.35;61.99
40612;BME280;26317;44.894;20.286;2023-02-20T05:18:57;101800.59;;;8.61;61.44
40612;BME280;26317;44.894;20.286;2023-02-20T05:21:36;101781.88;;;8.61;60.96
40612;BME280;26317;44.894;20.286;2023-02-20T05:24:28;101755.63;;;8.40;60.46
40612;BME280;26317;44.894;20.286;2023-02-20T05:27:00;101785.34;;;8.50;59.88
40612;BME280;26317;44.894;20.286;2023-02-20T05:29:49;101787.88;;;8.45;59.33
40612;BME280;26317;44.894;20.286;2023-02-20T05:32:29;101792.72;;;8.36;59.22
40612;BME280;26317;44.894;20.286;2023-02-20T05:35:07;101807.00;;;8.23;58.37
40612;BME280;26317;44.894;20.286;2023-02-20T05:38:03;101796.47;;;8.10;58.62
40612;BME280;26317;44.894;20.286;2023-02-20T05:40:44;101800.94;;;8.16;59.09
40612;BME280;26317;44.894;20.286;2023-02-20T05:43:18;101799.66;;;8.19;59.09
40612;BME280;26317;44.894;20.286;2023-02-20T05:45:59;101797.50;;;8.27;59.66
40612;BME280;26317;44.894;20.286;2023-02-20T05:48:43;101789.94;;;8.24;60.15
40612;BME280;26317;44.894;20.286;2023-02-20T05:51:38;101798.72;;;8.31;60.33
40612;BME280;26317;44.894;20.286;2023-02-20T05:54:31;101803.66;;;8.35;59.41
40612;BME280;26317;44.894;20.286;2023-02-20T05:57:08;101807.81;;;8.30;59.44
40612;BME280;26317;44.894;20.286;2023-02-20T05:59:47;101802.69;;;8.22;59.44
40612;BME280;26317;44.894;20.286;2023-02-20T06:02:25;101801.75;;;8.17;59.30
40612;BME280;26317;44.894;20.286;2023-02-20T06:05:07;101804.66;;;8.15;59.92
40612;BME280;26317;44.894;20.286;2023-02-20T06:07:37;101789.53;;;8.09;60.00
40612;BME280;26317;44.894;20.286;2023-02-20T06:10:19;101820.41;;;8.05;59.28
40612;BME280;26317;44.894;20.286;2023-02-20T06:12:53;101816.81;;;8.11;59.10
40612;BME280;26317;44.894;20.286;2023-02-20T06:15:31;101818.75;;;8.04;59.19
40612;BME280;26317;44.894;20.286;2023-02-20T06:18:10;101816.81;;;8.11;58.95
40612;BME280;26317;44.894;20.286;2023-02-20T06:20:49;101825.88;;;8.28;60.51
40612;BME280;26317;44.894;20.286;2023-02-20T06:23:19;101830.63;;;8.45;58.57
40612;BME280;26317;44.894;20.286;2023-02-20T06:25:58;101828.56;;;8.47;57.89
40612;BME280;26317;44.894;20.286;2023-02-20T06:28:33;101833.63;;;8.55;57.80
40612;BME280;26317;44.894;20.286;2023-02-20T06:31:13;101828.44;;;8.42;57.16
40612;BME280;26317;44.894;20.286;2023-02-20T06:33:46;101839.69;;;8.44;56.09
40612;BME280;26317;44.894;20.286;2023-02-20T06:36:30;101833.16;;;8.40;56.64
40612;BME280;26317;44.894;20.286;2023-02-20T06:39:09;101839.63;;;8.50;58.49
40612;BME280;26317;44.894;20.286;2023-02-20T06:41:47;101838.81;;;8.50;59.21
40612;BME280;26317;44.894;20.286;2023-02-20T06:44:21;101843.13;;;8.51;59.21
40612;BME280;26317;44.894;20.286;2023-02-20T06:46:52;101848.97;;;8.59;59.92
40612;BME280;26317;44.894;20.286;2023-02-20T06:49:27;101851.66;;;8.59;59.96
40612;BME280;26317;44.894;20.286;2023-02-20T06:52:00;101849.41;;;8.56;61.22
40612;BME280;26317;44.894;20.286;2023-02-20T06:54:30;101862.34;;;8.59;62.12
40612;BME280;26317;44.894;20.286;2023-02-20T06:57:09;101859.16;;;8.51;62.06
40612;BME280;26317;44.894;20.286;2023-02-20T06:59:50;101829.47;;;8.41;61.65
40612;BME280;26317;44.894;20.286;2023-02-20T07:02:29;101875.94;;;8.58;60.17
40612;BME280;26317;44.894;20.286;2023-02-20T07:05:14;101879.22;;;8.60;60.96
40612;BME280;26317;44.894;20.286;2023-02-20T07:07:48;101841.84;;;8.35;61.00
40612;BME280;26317;44.894;20.286;2023-02-20T07:10:23;101874.91;;;8.59;60.65
40612;BME280;26317;44.894;20.286;2023-02-20T07:13:14;101879.78;;;8.62;59.28
40612;BME280;26317;44.894;20.286;2023-02-20T07:15:53;101896.44;;;8.64;60.60
40612;BME280;26317;44.894;20.286;2023-02-20T07:18:28;101887.72;;;8.68;61.81
40612;BME280;26317;44.894;20.286;2023-02-20T07:21:07;101870.38;;;8.59;62.76
40612;BME280;26317;44.894;20.286;2023-02-20T07:23:40;101874.59;;;8.67;61.84
40612;BME280;26317;44.894;20.286;2023-02-20T07:26:23;101888.34;;;8.70;61.07
40612;BME280;26317;44.894;20.286;2023-02-20T07:29:07;101875.47;;;8.61;61.07
40612;BME280;26317;44.894;20.286;2023-02-20T07:31:41;101885.19;;;8.73;61.05
40612;BME280;26317;44.894;20.286;2023-02-20T07:34:19;101890.78;;;8.72;59.53
40612;BME280;26317;44.894;20.286;2023-02-20T07:36:53;101888.69;;;8.74;59.73
40612;BME280;26317;44.894;20.286;2023-02-20T07:39:29;101888.69;;;8.74;59.71
40612;BME280;26317;44.894;20.286;2023-02-20T07:42:03;101889.00;;;8.66;57.11
40612;BME280;26317;44.894;20.286;2023-02-20T07:44:59;101880.66;;;8.74;58.51
40612;BME280;26317;44.894;20.286;2023-02-20T07:47:32;101861.06;;;8.62;57.97
40612;BME280;26317;44.894;20.286;2023-02-20T07:50:09;101892.56;;;8.78;57.62
40612;BME280;26317;44.894;20.286;2023-02-20T07:52:48;101892.69;;;8.83;57.19
40612;BME280;26317;44.894;20.286;2023-02-20T07:55:23;101904.44;;;8.82;56.30
40612;BME280;26317;44.894;20.286;2023-02-20T07:58:01;101891.41;;;8.86;57.09
40612;BME280;26317;44.894;20.286;2023-02-20T08:00:58;101894.47;;;8.89;54.77
40612;BME280;26317;44.894;20.286;2023-02-20T08:03:38;101893.66;;;8.89;55.98
40612;BME280;26317;44.894;20.286;2023-02-20T08:06:16;101888.53;;;8.87;57.39
40612;BME280;26317;44.894;20.286;2023-02-20T08:08:57;101888.75;;;8.86;58.34
40612;BME280;26317;44.894;20.286;2023-02-20T08:11:40;101872.34;;;8.82;58.21
40612;BME280;26317;44.894;20.286;2023-02-20T08:14:17;101890.53;;;8.92;58.94
40612;BME280;26317;44.894;20.286;2023-02-20T08:16:51;101860.31;;;8.73;59.69
40612;BME280;26317;44.894;20.286;2023-02-20T08:19:25;101888.81;;;8.97;59.51
40612;BME280;26317;44.894;20.286;2023-02-20T08:22:07;101884.50;;;8.96;59.52
40612;BME280;26317;44.894;20.286;2023-02-20T08:24:38;101869.81;;;8.87;59.31
40612;BME280;26317;44.894;20.286;2023-02-20T08:27:36;101883.91;;;8.94;57.81
40612;BME280;26317;44.894;20.286;2023-02-20T08:30:22;101887.19;;;8.96;59.30
40612;BME280;26317;44.894;20.286;2023-02-20T08:33:11;101894.44;;;9.07;58.77
40612;BME280;26317;44.894;20.286;2023-02-20T08:35:49;101891.09;;;9.23;57.03
40612;BME280;26317;44.894;20.286;2023-02-20T08:38:25;101900.06;;;9.17;55.46
40612;BME280;26317;44.894;20.286;2023-02-20T08:41:07;101897.97;;;9.19;54.49
40612;BME280;26317;44.894;20.286;2023-02-20T08:43:47;101903.31;;;9.19;50.63
40612;BME280;26317;44.894;20.286;2023-02-20T08:46:26;101867.53;;;9.02;51.25
40612;BME280;26317;44.894;20.286;2023-02-20T08:49:05;101911.00;;;9.28;50.17
40612;BME280;26317;44.894;20.286;2023-02-20T08:51:42;101902.22;;;9.39;49.85
40612;BME280;26317;44.894;20.286;2023-02-20T08:54:22;101892.00;;;9.47;46.83
40612;BME280;26317;44.894;20.286;2023-02-20T08:57:04;101904.38;;;9.60;46.67
40612;BME280;26317;44.894;20.286;2023-02-20T08:59:37;101874.09;;;9.59;47.15
40612;BME280;26317;44.894;20.286;2023-02-20T09:02:23;101896.47;;;9.88;45.93
40612;BME280;26317;44.894;20.286;2023-02-20T09:05:04;101896.81;;;9.92;46.77
40612;BME280;26317;44.894;20.286;2023-02-20T09:07:53;101904.50;;;10.11;46.24
40612;BME280;26317;44.894;20.286;2023-02-20T09:10:30;101899.41;;;10.22;46.34
40612;BME280;26317;44.894;20.286;2023-02-20T09:13:07;101897.50;;;10.45;46.16
40612;BME280;26317;44.894;20.286;2023-02-20T09:15:49;101911.81;;;10.63;44.40
40612;BME280;26317;44.894;20.286;2023-02-20T09:18:23;101897.78;;;10.72;43.29
40612;BME280;26317;44.894;20.286;2023-02-20T09:21:01;101895.19;;;10.77;42.91
40612;BME280;26317;44.894;20.286;2023-02-20T09:23:40;101888.22;;;10.76;43.51
40612;BME280;26317;44.894;20.286;2023-02-20T09:26:11;101880.16;;;10.76;45.30
40612;BME280;26317;44.894;20.286;2023-02-20T09:29:06;101892.19;;;11.02;42.43
40612;BME280;26317;44.894;20.286;2023-02-20T09:31:45;101899.34;;;10.96;42.84
40612;BME280;26317;44.894;20.286;2023-02-20T09:34:28;101894.53;;;10.98;42.92
40612;BME280;26317;44.894;20.286;2023-02-20T09:37:15;101892.59;;;10.82;43.01
40612;BME280;26317;44.894;20.286;2023-02-20T09:39:52;101897.69;;;10.95;42.53
40612;BME280;26317;44.894;20.286;2023-02-20T09:42:47;101883.94;;;10.92;42.31
40612;BME280;26317;44.894;20.286;2023-02-20T09:45:44;101887.97;;;11.06;42.16
40612;BME280;26317;44.894;20.286;2023-02-20T09:48:44;101890.06;;;11.04;41.79
40612;BME280;26317;44.894;20.286;2023-02-20T09:51:39;101895.78;;;11.07;41.11
40612;BME280;26317;44.894;20.286;2023-02-20T09:54:31;101901.72;;;11.10;41.28
40612;BME280;26317;44.894;20.286;2023-02-20T09:57:21;101892.69;;;11.16;41.00
40612;BME280;26317;44.894;20.286;2023-02-20T10:00:02;101895.16;;;11.17;40.27
40612;BME280;26317;44.894;20.286;2023-02-20T10:02:51;101895.38;;;11.16;41.08
40612;BME280;26317;44.894;20.286;2023-02-20T10:05:34;101895.97;;;11.18;41.05
40612;BME280;26317;44.894;20.286;2023-02-20T10:08:19;101893.03;;;11.19;39.27
40612;BME280;26317;44.894;20.286;2023-02-20T10:11:11;101886.28;;;11.17;38.47
40612;BME280;26317;44.894;20.286;2023-02-20T10:14:04;101891.22;;;11.08;40.37
40612;BME280;26317;44.894;20.286;2023-02-20T10:16:50;101886.88;;;11.19;39.14
40612;BME280;26317;44.894;20.286;2023-02-20T10:19:33;101883.69;;;11.22;39.32
40612;BME280;26317;44.894;20.286;2023-02-20T10:22:12;101879.47;;;11.42;39.51
40612;BME280;26317;44.894;20.286;2023-02-20T10:25:09;101875.06;;;11.53;39.06
40612;BME280;26317;44.894;20.286;2023-02-20T10:27:52;101872.25;;;11.60;40.07
40612;BME280;26317;44.894;20.286;2023-02-20T10:30:29;101823.06;;;11.42;39.13
40612;BME280;26317;44.894;20.286;2023-02-20T10:33:22;101865.34;;;11.80;39.84
40612;BME280;26317;44.894;20.286;2023-02-20T10:36:03;101869.81;;;11.91;39.30
40612;BME280;26317;44.894;20.286;2023-02-20T10:39:00;101869.28;;;12.11;38.49
40612;BME280;26317;44.894;20.286;2023-02-20T10:41:47;101851.41;;;12.22;39.28
40612;BME280;26317;44.894;20.286;2023-02-20T10:44:35;101854.72;;;12.29;38.00
40612;BME280;26317;44.894;20.286;2023-02-20T10:47:24;101855.34;;;12.36;37.22
40612;BME280;26317;44.894;20.286;2023-02-20T10:50:13;101857.47;;;12.34;37.10
40612;BME280;26317;44.894;20.286;2023-02-20T10:52:54;101851.91;;;12.40;37.69
40612;BME280;26317;44.894;20.286;2023-02-20T10:55:41;101839.25;;;12.41;36.50
40612;BME280;26317;44.894;20.286;2023-02-20T10:58:30;101840.38;;;12.45;36.04
40612;BME280;26317;44.894;20.286;2023-02-20T11:01:26;101836.41;;;12.48;36.38
40612;BME280;26317;44.894;20.286;2023-02-20T11:04:09;101831.69;;;12.38;36.73
40612;BME280;26317;44.894;20.286;2023-02-20T11:06:55;101815.69;;;12.26;37.02
40612;BME280;26317;44.894;20.286;2023-02-20T11:09:39;101808.22;;;12.12;37.33
40612;BME280;26317;44.894;20.286;2023-02-20T11:12:28;101796.22;;;12.19;37.09
40612;BME280;26317;44.894;20.286;2023-02-20T11:15:16;101794.72;;;12.28;38.68
40612;BME280;26317;44.894;20.286;2023-02-20T11:18:00;101794.03;;;12.38;39.41
40612;BME280;26317;44.894;20.286;2023-02-20T11:20:51;101798.38;;;12.44;39.59
40612;BME280;26317;44.894;20.286;2023-02-20T11:23:38;101802.78;;;12.50;39.73
40612;BME280;26317;44.894;20.286;2023-02-20T11:26:34;101789.44;;;12.60;40.70
40612;BME280;26317;44.894;20.286;2023-02-20T11:29:22;101786.66;;;12.77;40.02
40612;BME280;26317;44.894;20.286;2023-02-20T11:32:23;101780.94;;;12.73;40.08
40612;BME280;26317;44.894;20.286;2023-02-20T11:35:35;101767.06;;;12.86;40.84
40612;BME280;26317;44.894;20.286;2023-02-20T11:38:41;101756.59;;;12.90;41.83
40612;BME280;26317;44.894;20.286;2023-02-20T11:41:30;101765.38;;;13.07;41.16
40612;BME280;26317;44.894;20.286;2023-02-20T11:44:27;101764.91;;;13.10;42.64
40612;BME280;26317;44.894;20.286;2023-02-20T11:47:38;101755.34;;;13.03;42.16
40612;BME280;26317;44.894;20.286;2023-02-20T11:50:17;101753.03;;;13.11;42.48
40612;BME280;26317;44.894;20.286;2023-02-20T11:53:16;101740.06;;;13.08;43.08
40612;BME280;26317;44.894;20.286;2023-02-20T11:56:10;101747.75;;;13.21;42.98
40612;BME280;26317;44.894;20.286;2023-02-20T11:58:47;101736.78;;;13.33;43.26
40612;BME280;26317;44.894;20.286;2023-02-20T12:01:32;101716.03;;;13.33;42.79
40612;BME280;26317;44.894;20.286;2023-02-20T12:04:18;101733.66;;;13.51;42.51
40612;BME280;26317;44.894;20.286;2023-02-20T12:06:58;101728.31;;;13.56;42.86
40612;BME280;26317;44.894;20.286;2023-02-20T12:10:24;101723.91;;;13.45;44.20
40612;BME280;26317;44.894;20.286;2023-02-20T12:13:01;101709.94;;;13.53;43.96
40612;BME280;26317;44.894;20.286;2023-02-20T12:15:35;101713.75;;;13.62;43.85
40612;BME280;26317;44.894;20.286;2023-02-20T12:18:47;101698.41;;;13.63;43.70
40612;BME280;26317;44.894;20.286;2023-02-20T12:21:48;101711.63;;;13.64;43.69
40612;BME280;26317;44.894;20.286;2023-02-20T12:27:53;101678.75;;;13.67;44.24
40612;BME280;26317;44.894;20.286;2023-02-20T12:31:08;101686.88;;;13.72;43.27
40612;BME280;26317;44.894;20.286;2023-02-20T12:34:53;101684.19;;;13.77;43.75
40612;BME280;26317;44.894;20.286;2023-02-20T12:38:17;101679.13;;;13.96;44.48
40612;BME280;26317;44.894;20.286;2023-02-20T12:41:17;101670.53;;;14.09;44.26
40612;BME280;26317;44.894;20.286;2023-02-20T12:47:30;101653.56;;;14.34;43.04
40612;BME280;26317;44.894;20.286;2023-02-20T12:50:32;101640.13;;;14.44;43.61
40612;BME280;26317;44.894;20.286;2023-02-20T12:53:34;101636.88;;;14.57;43.66
40612;BME280;26317;44.894;20.286;2023-02-20T12:56:27;101630.94;;;14.60;43.98
40612;BME280;26317;44.894;20.286;2023-02-20T12:59:23;101632.03;;;14.64;44.33
40612;BME280;26317;44.894;20.286;2023-02-20T13:02:16;101627.72;;;14.68;44.07
40612;BME280;26317;44.894;20.286;2023-02-20T13:05:23;101637.97;;;14.77;44.08
40612;BME280;26317;44.894;20.286;2023-02-20T13:08:16;101601.78;;;14.67;44.07
40612;BME280;26317;44.894;20.286;2023-02-20T13:10:58;101623.88;;;14.95;43.39
40612;BME280;26317;44.894;20.286;2023-02-20T13:13:43;101617.91;;;15.08;42.95
40612;BME280;26317;44.894;20.286;2023-02-20T13:16:36;101622.22;;;15.19;43.61
40612;BME280;26317;44.894;20.286;2023-02-20T13:19:27;101608.13;;;15.27;43.57
40612;BME280;26317;44.894;20.286;2023-02-20T13:22:23;101612.97;;;15.35;42.40
40612;BME280;26317;44.894;20.286;2023-02-20T13:28:39;101610.53;;;15.34;43.36
40612;BME280;26317;44.894;20.286;2023-02-20T13:31:19;101595.63;;;15.46;44.41
40612;BME280;26317;44.894;20.286;2023-02-20T13:40:37;101589.53;;;15.80;44.08
40612;BME280;26317;44.894;20.286;2023-02-20T13:43:29;101594.31;;;15.93;43.90
40612;BME280;26317;44.894;20.286;2023-02-20T13:46:26;101582.94;;;15.96;43.02
40612;BME280;26317;44.894;20.286;2023-02-20T13:49:05;101579.28;;;15.77;43.59
40612;BME280;26317;44.894;20.286;2023-02-20T13:51:44;101577.41;;;15.72;45.13
40612;BME280;26317;44.894;20.286;2023-02-20T13:54:27;101575.50;;;15.73;44.19
40612;BME280;26317;44.894;20.286;2023-02-20T13:57:18;101572.25;;;15.71;44.51
40612;BME280;26317;44.894;20.286;2023-02-20T14:00:11;101574.47;;;15.69;44.42
40612;BME280;26317;44.894;20.286;2023-02-20T14:03:17;101569.88;;;15.64;44.50
40612;BME280;26317;44.894;20.286;2023-02-20T14:06:04;101571.22;;;15.67;44.87
40612;BME280;26317;44.894;20.286;2023-02-20T14:08:44;101564.75;;;15.62;44.23
40612;BME280;26317;44.894;20.286;2023-02-20T14:11:30;101563.41;;;15.60;43.99
40612;BME280;26317;44.894;20.286;2023-02-20T14:14:26;101554.00;;;15.42;45.33
40612;BME280;26317;44.894;20.286;2023-02-20T14:17:17;101542.22;;;15.18;44.83
40612;BME280;26317;44.894;20.286;2023-02-20T14:20:03;101546.56;;;15.19;46.42
40612;BME280;26317;44.894;20.286;2023-02-20T14:22:42;101541.44;;;15.07;46.33
40612;BME280;26317;44.894;20.286;2023-02-20T14:25:22;101544.41;;;15.11;46.34
40612;BME280;26317;44.894;20.286;2023-02-20T14:28:16;101545.50;;;15.10;46.63
40612;BME280;26317;44.894;20.286;2023-02-20T14:31:17;101539.53;;;15.08;46.90
40612;BME280;26317;44.894;20.286;2023-02-20T14:34:10;101533.63;;;15.06;46.61
40612;BME280;26317;44.894;20.286;2023-02-20T14:37:00;101534.69;;;15.05;47.24
40612;BME280;26317;44.894;20.286;2023-02-20T14:39:44;101523.91;;;15.00;46.83
40612;BME280;26317;44.894;20.286;2023-02-20T14:42:25;101524.47;;;14.97;47.43
40612;BME280;26317;44.894;20.286;2023-02-20T14:45:01;101516.66;;;14.85;47.21
40612;BME280;26317;44.894;20.286;2023-02-20T14:47:53;101516.91;;;14.94;47.13
40612;BME280;26317;44.894;20.286;2023-02-20T14:50:32;101502.88;;;14.92;46.62